OIIS  Semnan  Airport

Semnan, Iran

Add Bookmark
ICAO OIIS
Type Airport
Status Operational
Latitude
35° 35' 27" N
35.591099
Longitude
53° 29' 42" E
53.495098
Local (DST + 5) UTC (GMT + 4)
Sep 4, 2015 12:18 Sep 4, 2015 07:48
Sunrise-Sunset Local UTC
Begin Civil Twilight 06:03 01:33
Sunrise 06:29 01:59
Sunset 07:21 14:51
End Civil Twilight 07:47 15:17
VFR
VFR
MVFR
MVFR
IFR
IFR
LIFR
LIFR
Unknown
Unavailable

Current Weather

METAR Observed VFR
OIIS 040200Z 36002KT CAVOK 20/02 Q1019 Fri, Sep 4, 2015 @ 02:00 UTC
(5 Hours, 48 Minutes ago)
Visual Flight Rules
Wind Visibility Conditions
360° at 2 knots (4 kph) 10 km or more
  • No significant weather
Temperatures Readings Precipitation
Current Temp
20°C
68°F
Dewpoint
2°C
36°F
Humidity 30%
Altimeter 30.09" Hg
Sea Level Pressure 1,019 mb
Field Elevation
1,115 m
3,658 ft
None Recorded
-
-

CheckWX.com is intended as a tool to help pilots better visualize weather data. It is not intended as a substitute for an official weather briefing obtained from a Flight Service Station. CheckWX.com does not meet the FAA requirements for an official pre-flight weather briefing. Therefore, it's important that pilots still call and obtain an official FSS pre-flight weather briefing.

© 2007-2015 CheckWX.com
07:48:03 UTC